createdAt,value
2018-04-18T00:00:49.406Z,80.02
2018-04-18T00:01:49.406Z,79.83
2018-04-18T00:02:49.406Z,79.74
2018-04-18T00:03:49.405Z,79.93
2018-04-18T00:04:49.406Z,79.55
2018-04-18T00:05:49.403Z,79.27
2018-04-18T00:06:49.403Z,79.27
2018-04-18T00:07:49.400Z,79.46
2018-04-18T00:08:49.400Z,79.36
2018-04-18T00:09:49.399Z,79.83
2018-04-18T00:10:49.398Z,80.22
2018-04-18T00:11:49.396Z,79.93
2018-04-18T00:12:49.396Z,80.12
2018-04-18T00:13:49.395Z,80.12
2018-04-18T00:14:49.394Z,79.93
2018-04-18T00:15:49.391Z,80.88
2018-04-18T00:16:49.392Z,80.12
2018-04-18T00:17:49.389Z,79.93
2018-04-18T00:18:49.389Z,80.31
2018-04-18T00:19:49.386Z,79.64
2018-04-18T00:20:49.386Z,79.64
2018-04-18T00:21:49.389Z,79.93
2018-04-18T00:22:49.387Z,80.02
2018-04-18T00:23:49.382Z,81.07
2018-04-18T00:24:49.381Z,80.12
2018-04-18T00:25:49.379Z,80.02
2018-04-18T00:26:49.379Z,79.93
2018-04-18T00:27:49.377Z,80.02
2018-04-18T00:28:49.376Z,79.93
2018-04-18T00:29:49.374Z,80.12
2018-04-18T00:30:49.374Z,80.12
2018-04-18T00:31:49.373Z,80.02
2018-04-18T00:32:49.370Z,80.12
2018-04-18T00:33:49.369Z,80.69
2018-04-18T00:34:49.367Z,81.17
2018-04-18T00:35:49.367Z,79.83
2018-04-18T00:36:49.365Z,80.02
2018-04-18T00:37:49.367Z,80.31
2018-04-18T00:38:49.363Z,79.93
2018-04-18T00:39:49.361Z,79.93
2018-04-18T00:40:49.360Z,80.02
2018-04-18T00:41:49.358Z,80.12
2018-04-18T00:42:49.357Z,80.69
2018-04-18T00:43:49.356Z,80.55
2018-04-18T00:44:49.354Z,80.65
2018-04-18T00:45:49.356Z,81.13
2018-04-18T00:46:49.351Z,81.17
2018-04-18T00:47:49.351Z,81.03
2018-04-18T00:48:49.350Z,80.84
2018-04-18T00:49:49.352Z,81.32
2018-04-18T00:50:49.346Z,81.51
2018-04-18T00:51:49.344Z,81.79
2018-04-18T00:52:49.344Z,81.70
2018-04-18T00:53:49.365Z,81.41
2018-04-18T00:54:49.339Z,81.70
2018-04-18T00:55:49.343Z,81.70
2018-04-18T00:56:49.338Z,81.60
2018-04-18T00:57:49.336Z,81.70
2018-04-18T00:58:49.336Z,81.70
2018-04-18T00:59:49.336Z,82.08
2018-04-18T01:00:49.331Z,81.23
2018-04-18T01:01:49.330Z,81.23
2018-04-18T01:02:49.327Z,81.13
2018-04-18T01:03:49.326Z,81.41
2018-04-18T01:04:49.325Z,81.32
2018-04-18T01:05:49.324Z,81.70
2018-04-18T01:06:49.320Z,81.89
2018-04-18T01:07:49.321Z,81.13
2018-04-18T01:08:49.320Z,81.32
2018-04-18T01:09:49.316Z,81.51
2018-04-18T01:10:49.315Z,81.60
2018-04-18T01:11:49.313Z,81.60
2018-04-18T01:12:49.312Z,81.98
2018-04-18T01:13:49.312Z,81.03
2018-04-18T01:14:49.313Z,80.75
2018-04-18T01:15:49.310Z,81.41
2018-04-18T01:16:49.305Z,81.60
2018-04-18T01:17:49.305Z,81.60
2018-04-18T01:18:49.305Z,80.94
2018-04-18T01:19:49.300Z,80.94
2018-04-18T01:20:49.298Z,80.84
2018-04-18T01:21:49.297Z,80.75
2018-04-18T01:22:49.295Z,80.65
2018-04-18T01:23:49.296Z,81.03
2018-04-18T01:24:49.293Z,80.65
2018-04-18T01:25:49.292Z,80.65
2018-04-18T01:26:49.289Z,80.65
2018-04-18T01:27:49.288Z,80.55
2018-04-18T01:28:49.286Z,79.99
2018-04-18T01:29:49.295Z,79.80
2018-04-18T01:30:49.283Z,79.99
2018-04-18T01:31:49.282Z,79.80
2018-04-18T01:32:49.280Z,79.80
2018-04-18T01:33:49.279Z,80.84
2018-04-18T01:34:49.276Z,80.46
2018-04-18T01:35:49.275Z,81.13
2018-04-18T01:36:49.273Z,81.32
2018-04-18T01:37:49.271Z,80.65
2018-04-18T01:38:49.268Z,80.65
2018-04-18T01:39:49.269Z,80.94
2018-04-18T01:40:49.266Z,80.84
2018-04-18T01:41:49.264Z,81.13
2018-04-18T01:42:49.261Z,81.60
2018-04-18T01:43:49.260Z,81.60
2018-04-18T01:44:49.259Z,81.79
2018-04-18T01:45:49.260Z,81.60
2018-04-18T01:46:49.256Z,81.51
2018-04-18T01:47:49.253Z,81.32
2018-04-18T01:48:49.259Z,81.23
2018-04-18T01:49:49.250Z,81.32
2018-04-18T01:50:49.249Z,81.70
2018-04-18T01:51:49.246Z,81.89
2018-04-18T01:52:49.246Z,82.37
2018-04-18T01:53:49.245Z,82.08
2018-04-18T01:54:49.242Z,81.60
2018-04-18T01:55:49.241Z,81.60
2018-04-18T01:56:49.240Z,82.18
2018-04-18T01:57:49.241Z,82.18
2018-04-18T01:58:49.235Z,81.70
2018-04-18T01:59:49.235Z,81.13
2018-04-18T02:00:49.233Z,81.41
2018-04-18T02:01:49.230Z,80.84
2018-04-18T02:02:49.227Z,81.13
2018-04-18T02:03:49.227Z,80.75
2018-04-18T02:04:49.224Z,80.75
2018-04-18T02:05:49.224Z,80.84
2018-04-18T02:06:49.219Z,81.03
2018-04-18T02:07:49.221Z,80.75
2018-04-18T02:08:49.221Z,80.65
2018-04-18T02:09:49.216Z,80.65
2018-04-18T02:10:49.213Z,80.75
2018-04-18T02:11:49.212Z,80.75
2018-04-18T02:12:49.211Z,81.03
2018-04-18T02:13:49.209Z,81.03
2018-04-18T02:14:49.207Z,80.84
2018-04-18T02:15:49.206Z,80.84
2018-04-18T02:16:49.206Z,81.41
2018-04-18T02:17:49.201Z,81.23
2018-04-18T02:18:49.200Z,81.32
2018-04-18T02:19:49.198Z,81.70
2018-04-18T02:20:49.195Z,81.60
2018-04-18T02:21:49.194Z,81.60
2018-04-18T02:22:49.193Z,81.89
2018-04-18T02:23:49.191Z,81.56
2018-04-18T02:24:49.192Z,81.56
2018-04-18T02:25:49.188Z,82.04
2018-04-18T02:26:49.186Z,82.51
2018-04-18T02:27:49.184Z,82.90
2018-04-18T02:28:49.185Z,82.90
2018-04-18T02:29:49.182Z,82.90
2018-04-18T02:30:49.178Z,83.09
2018-04-18T02:31:49.176Z,82.80
2018-04-18T02:32:49.175Z,82.80
2018-04-18T02:33:49.174Z,82.80
2018-04-18T02:34:49.172Z,82.80
2018-04-18T02:35:49.201Z,82.51
2018-04-18T02:36:49.168Z,82.70
2018-04-18T02:37:49.168Z,82.61
2018-04-18T02:38:49.164Z,82.32
2018-04-18T02:39:49.160Z,81.85
2018-04-18T02:40:49.161Z,81.66
2018-04-18T02:41:49.159Z,81.95
2018-04-18T02:42:49.155Z,81.56
2018-04-18T02:43:49.153Z,81.95
2018-04-18T02:44:49.160Z,82.32
2018-04-18T02:45:49.151Z,82.23
2018-04-18T02:46:49.146Z,82.80
2018-04-18T02:47:49.144Z,82.70
2018-04-18T02:48:49.145Z,83.47
2018-04-18T02:49:49.142Z,83.28
2018-04-18T02:50:49.138Z,83.09
2018-04-18T02:51:49.137Z,82.90
2018-04-18T02:52:49.143Z,82.80
2018-04-18T02:53:49.132Z,82.90
2018-04-18T02:54:49.130Z,82.90
2018-04-18T02:55:49.129Z,82.51
2018-04-18T02:56:49.129Z,82.04
2018-04-18T02:57:49.127Z,82.23
2018-04-18T02:58:49.122Z,81.76
2018-04-18T02:59:49.120Z,81.56
2018-04-18T03:00:49.118Z,81.66
2018-04-18T03:01:49.116Z,81.85
2018-04-18T03:02:49.114Z,81.66
2018-04-18T03:03:49.112Z,81.76
2018-04-18T03:04:49.111Z,81.95
2018-04-18T03:05:49.108Z,81.76
2018-04-18T03:06:49.106Z,82.04
2018-04-18T03:07:49.103Z,82.42
2018-04-18T03:08:49.101Z,82.42
2018-04-18T03:09:49.103Z,82.23
2018-04-18T03:10:49.099Z,82.14
2018-04-18T03:11:49.096Z,82.04
2018-04-18T03:12:49.092Z,81.95
2018-04-18T03:13:49.092Z,82.04
2018-04-18T03:14:49.093Z,82.23
2018-04-18T03:15:49.088Z,82.14
2018-04-18T03:16:49.085Z,82.42
2018-04-18T03:17:49.084Z,82.90
2018-04-18T03:18:49.081Z,82.51
2018-04-18T03:19:49.079Z,82.51
2018-04-18T03:20:49.077Z,82.80
2018-04-18T03:21:49.075Z,82.80
2018-04-18T03:22:49.077Z,82.32
2018-04-18T03:23:49.071Z,82.61
2018-04-18T03:24:49.069Z,82.80
2018-04-18T03:25:49.068Z,82.99
2018-04-18T03:26:49.064Z,83.09
2018-04-18T03:27:49.064Z,83.09
2018-04-18T03:28:49.062Z,83.37
2018-04-18T03:29:49.060Z,83.37
2018-04-18T03:30:49.059Z,83.56
2018-04-18T03:31:49.055Z,83.09
2018-04-18T03:32:49.060Z,83.18
2018-04-18T03:33:49.051Z,83.28
2018-04-18T03:34:49.049Z,83.09
2018-04-18T03:35:49.048Z,82.80
2018-04-18T03:36:49.046Z,83.09
2018-04-18T03:37:49.043Z,82.61
2018-04-18T03:38:49.041Z,81.95
2018-04-18T03:39:49.038Z,82.23
2018-04-18T03:40:49.052Z,81.95
2018-04-18T03:41:49.035Z,82.04
2018-04-18T03:42:49.031Z,81.85
2018-04-18T03:43:49.031Z,82.14
2018-04-18T03:44:49.029Z,81.47
2018-04-18T03:45:49.025Z,82.23
2018-04-18T03:46:49.023Z,82.04
2018-04-18T03:47:49.021Z,81.47
2018-04-18T03:48:49.021Z,81.85
2018-04-18T03:49:49.018Z,82.14
2018-04-18T03:50:49.017Z,81.47
2018-04-18T03:51:49.017Z,81.76
2018-04-18T03:52:49.012Z,81.95
2018-04-18T03:53:49.007Z,81.66
2018-04-18T03:54:49.012Z,81.37
2018-04-18T03:55:49.004Z,81.47
2018-04-18T03:56:49.012Z,81.66
2018-04-18T03:57:48.998Z,82.04
2018-04-18T03:58:48.997Z,82.51
2018-04-18T03:59:48.995Z,82.51
2018-04-18T04:00:48.993Z,82.23
2018-04-18T04:01:48.990Z,82.04
2018-04-18T04:02:48.988Z,82.32
2018-04-18T04:03:48.988Z,81.95
2018-04-18T04:04:48.985Z,82.14
2018-04-18T04:05:48.982Z,82.32
2018-04-18T04:06:48.980Z,82.42
2018-04-18T04:07:48.978Z,82.32
2018-04-18T04:08:48.978Z,82.61
2018-04-18T04:09:48.974Z,82.80
2018-04-18T04:10:48.971Z,82.99
2018-04-18T04:11:48.969Z,82.28
2018-04-18T04:12:48.968Z,82.86
2018-04-18T04:13:48.965Z,82.67
2018-04-18T04:14:48.961Z,83.23
2018-04-18T04:15:48.960Z,83.23
2018-04-18T04:16:48.957Z,83.14
2018-04-18T04:17:48.956Z,83.14
2018-04-18T04:18:48.952Z,83.52
2018-04-18T04:19:48.950Z,83.52
2018-04-18T04:20:48.949Z,84.19
2018-04-18T04:21:48.947Z,83.90
2018-04-18T04:22:48.943Z,83.52
2018-04-18T04:23:48.942Z,83.71
2018-04-18T04:24:48.947Z,83.52
2018-04-18T04:25:48.937Z,83.71
2018-04-18T04:26:48.936Z,83.81
2018-04-18T04:27:48.931Z,83.52
2018-04-18T04:28:48.929Z,83.23
2018-04-18T04:29:48.927Z,83.23
2018-04-18T04:30:48.924Z,83.33
2018-04-18T04:31:48.922Z,83.33
2018-04-18T04:32:48.919Z,83.42
2018-04-18T04:33:48.917Z,83.14
2018-04-18T04:34:48.913Z,83.33
2018-04-18T04:35:48.912Z,83.23
2018-04-18T04:36:48.909Z,83.14
2018-04-18T04:37:48.908Z,82.67
2018-04-18T04:38:48.906Z,83.14
2018-04-18T04:39:48.904Z,83.04
2018-04-18T04:40:48.901Z,83.04
2018-04-18T04:41:48.899Z,83.04
2018-04-18T04:42:48.895Z,83.23
2018-04-18T04:43:48.894Z,83.04
2018-04-18T04:44:48.943Z,83.42
2018-04-18T04:45:48.889Z,83.71
2018-04-18T04:46:48.885Z,83.04
2018-04-18T04:47:48.885Z,83.42
2018-04-18T04:48:48.882Z,82.67
2018-04-18T04:49:48.879Z,83.14
2018-04-18T04:50:48.877Z,82.67
2018-04-18T04:51:48.885Z,82.61
2018-04-18T04:52:48.874Z,82.86
2018-04-18T04:53:48.872Z,82.76
2018-04-18T04:54:48.868Z,82.67
2018-04-18T04:55:48.867Z,82.32
2018-04-18T04:56:48.865Z,82.57
2018-04-18T04:57:48.861Z,83.04
2018-04-18T04:58:48.859Z,83.33
2018-04-18T04:59:48.857Z,83.14
2018-04-18T05:00:48.856Z,83.71
2018-04-18T05:01:48.854Z,83.52
2018-04-18T05:02:48.851Z,83.33
2018-04-18T05:03:48.847Z,83.33
2018-04-18T05:04:48.845Z,84.09
2018-04-18T05:05:48.844Z,83.42
2018-04-18T05:06:48.841Z,83.42
2018-04-18T05:07:48.839Z,83.33
2018-04-18T05:08:48.837Z,82.95
2018-04-18T05:09:48.835Z,83.33
2018-04-18T05:10:48.831Z,83.28
2018-04-18T05:11:48.831Z,83.47
2018-04-18T05:12:48.828Z,83.47
2018-04-18T05:13:48.825Z,83.18
2018-04-18T05:14:48.823Z,82.90
2018-04-18T05:15:48.821Z,82.90
2018-04-18T05:16:48.819Z,82.70
2018-04-18T05:17:48.817Z,82.23
2018-04-18T05:18:48.815Z,81.66
2018-04-18T05:19:48.813Z,81.47
2018-04-18T05:20:48.809Z,81.18
2018-04-18T05:21:48.808Z,80.71
2018-04-18T05:22:48.807Z,80.65
2018-04-18T05:23:48.804Z,80.75
2018-04-18T05:24:48.800Z,81.03
2018-04-18T05:25:48.802Z,80.27
2018-04-18T05:26:48.797Z,79.70
2018-04-18T05:27:48.796Z,79.32
2018-04-18T05:28:48.794Z,79.41
2018-04-18T05:29:48.791Z,79.51
2018-04-18T05:30:48.789Z,79.80
2018-04-18T05:31:48.790Z,79.99
2018-04-18T05:32:48.787Z,79.32
2018-04-18T05:33:48.783Z,79.41
2018-04-18T05:34:48.783Z,79.41
2018-04-18T05:35:48.780Z,79.03
2018-04-18T05:36:48.779Z,78.94
2018-04-18T05:37:48.777Z,79.32
2018-04-18T05:38:48.775Z,79.99
2018-04-18T05:39:48.772Z,79.51
2018-04-18T05:40:48.771Z,79.32
2018-04-18T05:41:48.770Z,78.56
2018-04-18T05:42:48.768Z,78.17
2018-04-18T05:43:48.767Z,78.85
2018-04-18T05:44:48.767Z,78.50
2018-04-18T05:45:48.767Z,78.22
2018-04-18T05:46:48.763Z,78.50
2018-04-18T05:47:48.759Z,78.69
2018-04-18T05:48:48.758Z,78.59
2018-04-18T05:49:48.758Z,78.31
2018-04-18T05:50:48.759Z,78.78
2018-04-18T05:51:48.756Z,78.12
2018-04-18T05:52:48.752Z,78.59
2018-04-18T05:53:48.998Z,78.03
2018-04-18T05:54:49.013Z,78.12
2018-04-18T05:55:48.748Z,78.50
2018-04-18T05:56:48.747Z,78.78
2018-04-18T05:57:48.746Z,78.22
2018-04-18T05:58:48.876Z,77.26
2018-04-18T05:59:48.878Z,77.59
2018-04-18T06:00:48.792Z,77.93
2018-04-18T06:01:48.753Z,78.25
2018-04-18T06:02:48.744Z,77.78
2018-04-18T06:03:49.017Z,78.35
2018-04-18T06:04:49.003Z,78.25
2018-04-18T06:05:48.736Z,77.78
2018-04-18T06:06:48.753Z,77.40
2018-04-18T06:07:48.734Z,76.73
2018-04-18T06:08:48.737Z,75.68
2018-04-18T06:09:48.732Z,75.96
2018-04-18T06:10:48.730Z,75.96
2018-04-18T06:11:48.812Z,75.91
2018-04-18T06:12:48.800Z,75.34
2018-04-18T06:13:48.731Z,76.01
2018-04-18T06:14:48.780Z,77.06
2018-04-18T06:15:48.727Z,76.48
2018-04-18T06:16:48.727Z,75.81
2018-04-18T06:17:48.725Z,77.15
2018-04-18T06:18:48.734Z,76.20
2018-04-18T06:19:48.724Z,75.43
2018-04-18T06:20:48.728Z,74.86
2018-04-18T06:21:48.722Z,75.15
2018-04-18T06:22:48.722Z,73.91
2018-04-18T06:23:48.722Z,74.48
2018-04-18T06:24:48.721Z,74.48
2018-04-18T06:25:48.724Z,74.42
2018-04-18T06:26:48.720Z,73.66
2018-04-18T06:27:48.719Z,73.47
2018-04-18T06:28:48.761Z,74.04
2018-04-18T06:29:48.720Z,74.13
2018-04-18T06:30:48.969Z,73.18
2018-04-18T06:31:48.941Z,72.71
2018-04-18T06:32:49.026Z,73.28
2018-04-18T06:33:48.831Z,74.04
2018-04-18T06:34:48.938Z,73.37
2018-04-18T06:35:48.721Z,72.51
2018-04-18T06:36:48.716Z,73.79
2018-04-18T06:37:48.719Z,72.45
2018-04-18T06:38:48.715Z,72.07
2018-04-18T06:39:48.714Z,71.69
2018-04-18T06:40:48.718Z,69.53
2018-04-18T06:41:48.717Z,67.21
2018-04-18T06:42:48.720Z,64.12
2018-04-18T06:43:48.724Z,61.21
2018-04-18T06:44:48.728Z,59.80
2018-04-18T06:45:48.736Z,56.60
2018-04-18T06:46:48.738Z,55.29
2018-04-18T06:47:48.744Z,53.39
2018-04-18T06:48:48.751Z,52.84
2018-04-18T06:49:49.003Z,50.08
2018-04-18T06:50:48.767Z,48.85
2018-04-18T06:51:48.776Z,47.53
2018-04-18T06:52:48.785Z,46.69
2018-04-18T06:53:48.794Z,45.84
2018-04-18T06:54:48.803Z,43.27
2018-04-18T06:55:49.000Z,42.80
2018-04-18T06:56:48.826Z,43.48
2018-04-18T06:57:48.839Z,43.29
2018-04-18T06:58:48.846Z,42.71
2018-04-18T06:59:48.859Z,43.29
2018-04-18T07:00:48.972Z,41.86
2018-04-18T07:01:48.885Z,40.05
2018-04-18T07:02:48.900Z,40.53
2018-04-18T07:03:48.910Z,39.29
2018-04-18T07:04:48.924Z,38.35
2018-04-18T07:05:48.938Z,38.06
2018-04-18T07:06:48.949Z,37.50
2018-04-18T07:07:48.962Z,37.12
2018-04-18T07:08:49.321Z,37.40
2018-04-18T07:09:49.291Z,37.48
2018-04-18T07:10:49.330Z,38.06
2018-04-18T07:11:49.106Z,38.74
2018-04-18T07:12:49.029Z,37.58
2018-04-18T07:13:49.044Z,36.69
2018-04-18T07:14:49.054Z,36.71
2018-04-18T07:15:49.065Z,37.63
2018-04-18T07:16:49.079Z,40.32
2018-04-18T07:17:49.093Z,40.03
2018-04-18T07:18:49.108Z,40.03
2018-04-18T07:19:49.114Z,39.82
2018-04-18T07:20:49.129Z,39.62
2018-04-18T07:21:49.137Z,40.88
2018-04-18T07:22:49.146Z,41.53
2018-04-18T07:23:49.157Z,41.72
2018-04-18T07:24:49.165Z,41.89
2018-04-18T07:25:49.176Z,43.23
2018-04-18T07:26:49.187Z,44.76
2018-04-18T07:27:49.195Z,44.93
2018-04-18T07:28:49.204Z,44.65
2018-04-18T07:29:49.214Z,45.90
2018-04-18T07:30:49.223Z,46.47
2018-04-18T07:31:49.236Z,46.09
2018-04-18T07:32:49.240Z,46.64
2018-04-18T07:33:49.254Z,46.84
2018-04-18T07:34:49.259Z,47.13
2018-04-18T07:35:49.557Z,48.95
2018-04-18T07:36:49.275Z,48.64
2018-04-18T07:37:49.286Z,48.85
2018-04-18T07:38:49.296Z,50.01
2018-04-18T07:39:49.301Z,49.79
2018-04-18T07:40:49.311Z,49.51
2018-04-18T07:41:49.347Z,49.33
2018-04-18T07:42:49.593Z,50.01
2018-04-18T07:43:49.515Z,50.59
2018-04-18T07:44:49.339Z,50.30
2018-04-18T07:45:49.347Z,50.27
2018-04-18T07:46:49.720Z,48.57
2018-04-18T07:47:49.360Z,48.66
2018-04-18T07:48:49.369Z,48.02
2018-04-18T07:49:49.379Z,46.38
2018-04-18T07:50:49.385Z,48.30
2018-04-18T07:51:49.393Z,46.67
2018-04-18T07:52:49.402Z,47.24
2018-04-18T07:53:49.409Z,46.95
2018-04-18T07:54:49.416Z,48.49
2018-04-18T07:55:49.425Z,47.92
2018-04-18T07:56:49.433Z,46.19
2018-04-18T07:57:49.498Z,47.53
2018-04-18T07:58:49.450Z,47.63
2018-04-18T07:59:49.456Z,47.56
2018-04-18T08:00:49.465Z,47.94
2018-04-18T08:01:49.527Z,47.10
2018-04-18T08:02:49.484Z,46.06
2018-04-18T08:03:49.492Z,45.20
2018-04-18T08:04:49.501Z,46.35
2018-04-18T08:05:49.511Z,47.63
2018-04-18T08:06:49.519Z,44.25
2018-04-18T08:07:49.528Z,44.15
2018-04-18T08:08:49.860Z,43.19
2018-04-18T08:09:49.819Z,43.12
2018-04-18T08:10:49.560Z,42.19
2018-04-18T08:11:49.650Z,42.00
2018-04-18T08:12:49.583Z,41.83
2018-04-18T08:13:49.602Z,41.83
2018-04-18T08:14:49.609Z,40.67
2018-04-18T08:15:49.625Z,40.50
2018-04-18T08:16:49.629Z,41.94
2018-04-18T08:17:49.642Z,42.02
2018-04-18T08:18:49.653Z,40.36
2018-04-18T08:19:49.666Z,41.91
2018-04-18T08:20:49.678Z,41.50
2018-04-18T08:21:49.702Z,41.69
2018-04-18T08:22:49.701Z,39.74
2018-04-18T08:23:49.713Z,40.05
2018-04-18T08:24:49.733Z,40.80
2018-04-18T08:25:49.737Z,42.44
2018-04-18T08:26:49.748Z,42.03
2018-04-18T08:27:49.759Z,42.97
2018-04-18T08:28:49.771Z,44.13
2018-04-18T08:29:50.181Z,44.89
2018-04-18T08:30:49.935Z,46.52
2018-04-18T08:31:49.998Z,46.14
2018-04-18T08:32:49.816Z,45.65
2018-04-18T08:33:49.824Z,46.15
2018-04-18T08:34:49.835Z,45.97
2018-04-18T08:35:49.846Z,45.87
2018-04-18T08:36:49.856Z,46.18
2018-04-18T08:37:49.866Z,47.53
2018-04-18T08:38:49.877Z,45.89
2018-04-18T08:39:49.886Z,49.46
2018-04-18T08:40:49.900Z,46.78
2018-04-18T08:41:49.926Z,47.45
2018-04-18T08:42:49.915Z,47.27
2018-04-18T08:43:49.924Z,45.43
2018-04-18T08:44:49.936Z,47.85
2018-04-18T08:45:49.943Z,46.78
2018-04-18T08:46:49.953Z,48.25
2018-04-18T08:47:49.962Z,46.51
2018-04-18T08:48:49.980Z,46.59
2018-04-18T08:49:49.982Z,47.55
2018-04-18T08:50:49.992Z,48.25
2018-04-18T08:51:50.002Z,46.64
2018-04-18T08:52:50.097Z,44.80
2018-04-18T08:53:50.023Z,43.18
2018-04-18T08:54:50.033Z,43.06
2018-04-18T08:55:50.044Z,43.26
2018-04-18T08:56:50.056Z,44.20
2018-04-18T08:57:50.065Z,45.45
2018-04-18T08:58:50.075Z,44.97
2018-04-18T08:59:50.086Z,45.00
2018-04-18T09:00:50.097Z,44.42
2018-04-18T09:01:50.108Z,44.15
2018-04-18T09:02:50.120Z,42.91
2018-04-18T09:03:50.137Z,42.18
2018-04-18T09:04:50.145Z,43.07
2018-04-18T09:05:50.157Z,43.48
2018-04-18T09:06:50.170Z,41.56
2018-04-18T09:07:50.182Z,41.27
2018-04-18T09:08:50.197Z,40.19
2018-04-18T09:09:50.247Z,40.28
2018-04-18T09:10:50.468Z,40.40
2018-04-18T09:11:50.421Z,38.78
2018-04-18T09:12:50.427Z,38.07
2018-04-18T09:13:50.270Z,38.56
2018-04-18T09:14:50.290Z,37.79
2018-04-18T09:15:50.316Z,37.81
2018-04-18T09:16:50.316Z,37.92
2018-04-18T09:17:50.331Z,37.45
2018-04-18T09:18:50.346Z,35.82
2018-04-18T09:19:50.362Z,35.16
2018-04-18T09:20:50.380Z,35.55
2018-04-18T09:21:50.395Z,36.22
2018-04-18T09:22:50.433Z,35.84
2018-04-18T09:23:50.427Z,35.06
2018-04-18T09:24:50.444Z,33.41
2018-04-18T09:25:50.466Z,34.38
2018-04-18T09:26:50.477Z,35.63
2018-04-18T09:27:50.493Z,34.85
2018-04-18T09:28:50.512Z,34.97
2018-04-18T09:29:50.528Z,32.65
2018-04-18T09:30:50.544Z,32.82
2018-04-18T09:31:50.561Z,34.09
2018-04-18T09:32:50.582Z,30.84
2018-04-18T09:33:50.597Z,31.42
2018-04-18T09:34:50.613Z,31.81
2018-04-18T09:35:50.629Z,32.09
2018-04-18T09:36:50.647Z,33.12
2018-04-18T09:37:50.664Z,34.88
2018-04-18T09:38:50.680Z,35.27
2018-04-18T09:39:50.697Z,36.33
2018-04-18T09:40:50.717Z,34.30
2018-04-18T09:41:50.730Z,34.11
2018-04-18T09:42:50.944Z,34.01
2018-04-18T09:43:50.762Z,34.49
2018-04-18T09:44:50.894Z,34.12
2018-04-18T09:45:50.796Z,33.64
2018-04-18T09:46:50.814Z,34.02
2018-04-18T09:47:50.830Z,33.65
2018-04-18T09:48:50.845Z,33.11
2018-04-18T09:49:50.862Z,31.65
2018-04-18T09:50:50.878Z,29.62
2018-04-18T09:51:50.896Z,27.59
2018-04-18T09:52:50.912Z,27.70
2018-04-18T09:53:50.931Z,24.99
2018-04-18T09:54:50.945Z,24.80
2018-04-18T09:55:50.963Z,24.51
2018-04-18T09:56:50.978Z,24.80
2018-04-18T09:57:51.087Z,25.01
2018-04-18T09:58:51.068Z,25.99
2018-04-18T09:59:51.036Z,23.63
2018-04-18T10:00:51.174Z,24.68
2018-04-18T10:01:51.111Z,23.50
2018-04-18T10:02:51.149Z,21.84
2018-04-18T10:03:51.171Z,22.62
2018-04-18T10:04:51.214Z,23.39
2018-04-18T10:05:51.232Z,24.16
2018-04-18T10:06:51.200Z,25.51
2018-04-18T10:07:51.227Z,25.60
2018-04-18T10:08:51.238Z,24.54
2018-04-18T10:09:51.266Z,25.32
2018-04-18T10:10:51.313Z,25.81
2018-04-18T10:11:51.245Z,28.05
2018-04-18T10:12:51.247Z,25.25
2018-04-18T10:13:51.261Z,26.04
2018-04-18T10:14:51.275Z,27.80
2018-04-18T10:15:51.337Z,26.46
2018-04-18T10:16:51.400Z,24.60
2018-04-18T10:17:51.403Z,25.08
2018-04-18T10:18:51.360Z,25.07
2018-04-18T10:19:51.358Z,24.67
2018-04-18T10:20:51.375Z,24.85
2018-04-18T10:21:51.392Z,24.06
2018-04-18T10:22:51.465Z,26.78
2018-04-18T10:23:51.422Z,26.39
2018-04-18T10:24:51.439Z,26.87
2018-04-18T10:25:51.455Z,26.60
2018-04-18T10:26:51.470Z,26.50
2018-04-18T10:27:51.493Z,26.90
2018-04-18T10:28:51.502Z,25.35
2018-04-18T10:29:51.517Z,24.58
2018-04-18T10:30:51.535Z,25.26
2018-04-18T10:31:51.550Z,28.88
2018-04-18T10:32:51.565Z,26.93
2018-04-18T10:33:51.586Z,24.67
2018-04-18T10:34:51.597Z,24.68
2018-04-18T10:35:51.613Z,25.34
2018-04-18T10:36:51.899Z,26.10
2018-04-18T10:37:51.893Z,26.68
2018-04-18T10:38:51.659Z,28.14
2018-04-18T10:39:51.676Z,27.66
2018-04-18T10:40:51.691Z,29.22
2018-04-18T10:41:51.707Z,30.68
2018-04-18T10:42:51.723Z,28.54
2018-04-18T10:43:52.027Z,26.79
2018-04-18T10:44:51.752Z,26.98
2018-04-18T10:45:51.771Z,28.63
2018-04-18T10:46:51.783Z,30.09
2018-04-18T10:47:51.797Z,30.80
2018-04-18T10:48:51.816Z,27.79
2018-04-18T10:49:51.828Z,27.01
2018-04-18T10:50:51.843Z,26.23
2018-04-18T10:51:52.598Z,26.92
2018-04-18T10:52:51.892Z,30.50
2018-04-18T10:53:51.979Z,30.40
2018-04-18T10:54:51.904Z,29.44
2018-04-18T10:55:51.919Z,29.25
2018-04-18T10:56:51.935Z,29.54
2018-04-18T10:57:51.952Z,31.68
2018-04-18T10:58:52.121Z,28.86
2018-04-18T10:59:51.984Z,29.35
2018-04-18T11:00:51.998Z,28.18
2018-04-18T11:01:52.014Z,28.47
2018-04-18T11:02:52.028Z,31.70
2018-04-18T11:03:52.042Z,29.26
2018-04-18T11:04:52.351Z,28.68
2018-04-18T11:05:52.132Z,29.16
2018-04-18T11:06:52.089Z,26.62
2018-04-18T11:07:52.104Z,27.86
2018-04-18T11:08:52.118Z,28.33
2018-04-18T11:09:52.155Z,30.08
2018-04-18T11:10:52.149Z,29.97
2018-04-18T11:11:52.166Z,32.70
2018-04-18T11:12:52.183Z,28.61
2018-04-18T11:13:52.195Z,27.93
2018-04-18T11:14:52.208Z,28.53
2018-04-18T11:15:52.516Z,28.13
2018-04-18T11:16:52.753Z,28.53
2018-04-18T11:17:52.252Z,30.58
2018-04-18T11:18:52.267Z,28.44
2018-04-18T11:19:52.281Z,28.07
2018-04-18T11:20:52.296Z,29.33
2018-04-18T11:21:52.311Z,26.92
2018-04-18T11:22:52.329Z,27.40
2018-04-18T11:23:52.339Z,27.69
2018-04-18T11:24:52.356Z,29.06
2018-04-18T11:25:52.370Z,27.03
2018-04-18T11:26:52.436Z,27.61
2018-04-18T11:27:52.399Z,29.65
2018-04-18T11:28:52.415Z,29.16
2018-04-18T11:29:52.430Z,29.94
2018-04-18T11:30:52.445Z,27.92
2018-04-18T11:31:52.459Z,27.90
2018-04-18T11:32:52.474Z,28.99
2018-04-18T11:33:52.490Z,28.50
2018-04-18T11:34:52.504Z,26.84
2018-04-18T11:35:52.519Z,29.08
2018-04-18T11:36:52.572Z,29.66
2018-04-18T11:37:52.706Z,28.39
2018-04-18T11:38:52.563Z,27.87
2018-04-18T11:39:52.579Z,29.61
2018-04-18T11:40:52.600Z,30.29
2018-04-18T11:41:52.610Z,30.38
2018-04-18T11:42:52.623Z,32.13
2018-04-18T11:43:52.639Z,32.91
2018-04-18T11:44:52.660Z,30.59
2018-04-18T11:45:52.669Z,30.88
2018-04-18T11:46:52.684Z,29.04
2018-04-18T11:47:52.697Z,29.52
2018-04-18T11:48:52.713Z,28.15
2018-04-18T11:49:52.724Z,29.50
2018-04-18T11:50:52.738Z,30.37
2018-04-18T11:51:52.767Z,30.18
2018-04-18T11:52:52.771Z,31.07
2018-04-18T11:53:52.790Z,30.48
2018-04-18T11:54:52.796Z,32.71
2018-04-18T11:55:52.809Z,34.30
2018-04-18T11:56:52.825Z,31.08
2018-04-18T11:57:52.840Z,29.43
2018-04-18T11:58:52.857Z,31.18
2018-04-18T11:59:52.867Z,30.71
2018-04-18T12:00:53.081Z,31.97
2018-04-18T12:01:52.896Z,31.60
2018-04-18T12:02:52.909Z,30.52
2018-04-18T12:03:52.934Z,30.35
2018-04-18T12:04:52.942Z,28.89
2018-04-18T12:05:53.156Z,28.00
2018-04-18T12:06:53.191Z,31.98
2018-04-18T12:07:53.203Z,29.35
2018-04-18T12:08:52.994Z,29.33
2018-04-18T12:09:53.009Z,28.74
2018-04-18T12:10:53.028Z,29.50
2018-04-18T12:11:53.041Z,30.74
2018-04-18T12:12:53.145Z,30.63
2018-04-18T12:13:53.065Z,31.60
2018-04-18T12:14:53.079Z,31.70
2018-04-18T12:15:53.090Z,30.73
2018-04-18T12:16:53.256Z,30.54
2018-04-18T12:17:53.119Z,32.07
2018-04-18T12:18:53.132Z,33.83
2018-04-18T12:19:53.145Z,33.54
2018-04-18T12:20:53.267Z,31.32
2018-04-18T12:21:53.171Z,30.44
2018-04-18T12:22:53.184Z,31.70
2018-04-18T12:23:53.197Z,32.18
2018-04-18T12:24:53.211Z,32.59
2018-04-18T12:25:53.444Z,31.92
2018-04-18T12:26:53.435Z,33.86
2018-04-18T12:27:53.488Z,31.73
2018-04-18T12:28:53.261Z,29.88
2018-04-18T12:29:53.500Z,29.12
2018-04-18T12:30:53.286Z,28.53
2018-04-18T12:31:53.299Z,29.30
2018-04-18T12:32:53.314Z,28.70
2018-04-18T12:33:53.326Z,29.19
2018-04-18T12:34:53.339Z,30.24
2018-04-18T12:35:53.368Z,31.70
2018-04-18T12:36:53.365Z,31.01
2018-04-18T12:37:53.378Z,30.79
2018-04-18T12:38:53.393Z,31.28
2018-04-18T12:39:53.488Z,31.78
2018-04-18T12:40:53.415Z,32.17
2018-04-18T12:41:53.429Z,31.78
2018-04-18T12:42:53.440Z,33.14
2018-04-18T12:43:53.452Z,31.79
2018-04-18T12:44:53.465Z,31.49
2018-04-18T12:45:53.477Z,32.84
2018-04-18T12:46:53.488Z,32.96
2018-04-18T12:47:53.503Z,35.21
2018-04-18T12:48:53.515Z,31.42
2018-04-18T12:49:53.642Z,31.71
2018-04-18T12:50:53.535Z,31.89
2018-04-18T12:51:53.548Z,32.28
2018-04-18T12:52:53.561Z,32.18